createdAt,value
2023-03-26T00:00:28.386Z,14.31
2023-03-26T00:02:31.380Z,14.32
2023-03-26T00:04:35.515Z,14.31
2023-03-26T00:06:41.722Z,14.31
2023-03-26T00:08:46.076Z,14.28
2023-03-26T00:10:48.875Z,14.31
2023-03-26T00:12:51.928Z,14.33
2023-03-26T00:14:54.726Z,14.33
2023-03-26T00:16:57.531Z,14.32
2023-03-26T00:19:01.305Z,14.32
2023-03-26T00:21:07.708Z,14.32
2023-03-26T00:23:10.461Z,14.31
2023-03-26T00:25:13.631Z,14.30
2023-03-26T00:27:17.447Z,14.30
2023-03-26T00:29:20.254Z,14.31
2023-03-26T00:31:23.077Z,14.30
2023-03-26T00:33:25.875Z,14.28
2023-03-26T00:35:29.819Z,14.28
2023-03-26T00:37:34.102Z,14.30
2023-03-26T00:39:37.321Z,14.31
2023-03-26T00:41:43.062Z,14.30
2023-03-26T00:43:48.415Z,14.30
2023-03-26T00:45:54.208Z,14.30
2023-03-26T00:47:57.243Z,14.32
2023-03-26T00:50:00.349Z,14.31
2023-03-26T00:52:03.619Z,14.27
2023-03-26T00:54:08.670Z,14.25
2023-03-26T00:56:12.038Z,14.24
2023-03-26T00:58:15.911Z,14.25
2023-03-26T01:00:20.433Z,14.25
2023-03-26T01:02:25.556Z,14.22
2023-03-26T01:04:31.935Z,14.22
2023-03-26T01:06:36.646Z,14.23
2023-03-26T01:08:42.750Z,14.25
2023-03-26T01:10:50.743Z,14.26
2023-03-26T01:12:53.828Z,14.26
2023-03-26T01:15:01.291Z,14.25
2023-03-26T01:17:07.094Z,14.27
2023-03-26T01:19:16.484Z,14.26
2023-03-26T01:21:23.197Z,14.28
2023-03-26T01:23:31.883Z,14.27
2023-03-26T01:25:42.129Z,14.23
2023-03-26T01:27:49.937Z,14.16
2023-03-26T01:29:55.692Z,14.16
2023-03-26T01:32:10.519Z,14.16
2023-03-26T01:34:22.108Z,14.17
2023-03-26T01:36:33.573Z,14.18
2023-03-26T01:38:46.531Z,14.17
2023-03-26T01:40:56.019Z,14.13
2023-03-26T01:43:05.255Z,14.13
2023-03-26T01:45:12.737Z,14.12
2023-03-26T01:47:18.680Z,14.13
2023-03-26T01:49:21.423Z,14.12
2023-03-26T01:51:30.249Z,14.14
2023-03-26T01:53:33.982Z,14.15
2023-03-26T01:55:43.464Z,14.14
2023-03-26T01:57:59.526Z,14.16
2023-03-26T02:00:14.274Z,14.15
2023-03-26T02:02:28.687Z,14.17
2023-03-26T02:04:37.596Z,14.19
2023-03-26T02:06:45.765Z,14.18
2023-03-26T02:08:54.216Z,14.22
2023-03-26T02:10:58.535Z,14.25
2023-03-26T02:13:03.003Z,14.27
2023-03-26T02:15:07.215Z,14.26
2023-03-26T02:17:10.844Z,14.27
2023-03-26T02:19:21.383Z,14.27
2023-03-26T02:21:26.014Z,14.31
2023-03-26T02:23:29.697Z,14.32
2023-03-26T02:25:35.204Z,14.31
2023-03-26T02:27:38.209Z,14.30
2023-03-26T02:29:42.547Z,14.25
2023-03-26T02:31:47.112Z,14.22
2023-03-26T02:33:49.924Z,14.23
2023-03-26T02:35:53.138Z,14.22
2023-03-26T02:37:56.756Z,14.17
2023-03-26T02:39:59.462Z,14.11
2023-03-26T02:42:02.425Z,14.13
2023-03-26T02:44:06.439Z,14.16
2023-03-26T02:46:10.847Z,14.23
2023-03-26T02:48:15.070Z,14.25
2023-03-26T02:50:17.886Z,14.26
2023-03-26T02:52:20.669Z,14.30
2023-03-26T02:54:23.449Z,14.32
2023-03-26T02:56:26.470Z,14.32
2023-03-26T02:58:30.102Z,14.33
2023-03-26T03:00:33.594Z,14.30
2023-03-26T03:02:38.916Z,14.31
2023-03-26T03:04:41.812Z,14.30
2023-03-26T03:06:45.550Z,14.28
2023-03-26T03:08:48.803Z,14.27
2023-03-26T03:10:59.294Z,14.27
2023-03-26T03:13:04.028Z,14.26
2023-03-26T03:15:07.752Z,14.25
2023-03-26T03:17:10.596Z,14.23
2023-03-26T03:19:15.055Z,14.21
2023-03-26T03:21:18.038Z,14.23
2023-03-26T03:23:21.313Z,14.20
2023-03-26T03:25:25.969Z,14.17
2023-03-26T03:27:28.800Z,14.19
2023-03-26T03:29:31.575Z,14.20
2023-03-26T03:31:34.355Z,14.17
2023-03-26T03:33:37.239Z,14.16
2023-03-26T03:35:41.611Z,14.17
2023-03-26T03:37:44.581Z,14.17
2023-03-26T03:39:47.840Z,14.14
2023-03-26T03:41:50.589Z,14.11
2023-03-26T03:43:53.380Z,14.11
2023-03-26T03:45:56.403Z,14.11
2023-03-26T03:47:59.552Z,14.09
2023-03-26T03:50:02.331Z,14.07
2023-03-26T03:52:06.897Z,14.08
2023-03-26T03:54:09.895Z,14.11
2023-03-26T03:56:14.591Z,14.10
2023-03-26T03:58:22.356Z,14.12
2023-03-26T04:00:25.392Z,14.10
2023-03-26T04:02:30.321Z,14.06
2023-03-26T04:04:34.309Z,14.03
2023-03-26T04:06:37.144Z,14.03
2023-03-26T04:08:41.502Z,14.03
2023-03-26T04:10:45.010Z,14.05
2023-03-26T04:12:47.838Z,14.07
2023-03-26T04:14:50.605Z,14.07
2023-03-26T04:16:53.397Z,14.07
2023-03-26T04:18:57.304Z,14.06
2023-03-26T04:21:02.843Z,14.05
2023-03-26T04:23:06.445Z,14.07
2023-03-26T04:25:11.400Z,14.09
2023-03-26T04:27:17.840Z,14.12
2023-03-26T04:29:24.371Z,14.15
2023-03-26T04:31:30.337Z,14.15
2023-03-26T04:33:35.554Z,14.13
2023-03-26T04:35:41.756Z,14.08
2023-03-26T04:37:45.987Z,14.06
2023-03-26T04:39:50.153Z,14.04
2023-03-26T04:41:54.270Z,13.97
2023-03-26T04:43:57.159Z,13.94
2023-03-26T04:46:04.437Z,13.88
2023-03-26T04:48:08.324Z,13.89
2023-03-26T04:50:12.534Z,13.86
2023-03-26T04:52:15.881Z,13.87
2023-03-26T04:54:24.411Z,13.90
2023-03-26T04:56:35.645Z,13.89
2023-03-26T04:58:39.933Z,13.90
2023-03-26T05:00:43.219Z,13.91
2023-03-26T05:02:49.949Z,13.89
2023-03-26T05:04:52.841Z,13.90
2023-03-26T05:06:56.696Z,13.91
2023-03-26T05:08:59.543Z,13.90
2023-03-26T05:11:02.316Z,13.86
2023-03-26T05:13:05.126Z,13.87
2023-03-26T05:15:11.703Z,13.85
2023-03-26T05:17:18.746Z,13.84
2023-03-26T05:19:22.046Z,13.84
2023-03-26T05:21:25.152Z,13.82
2023-03-26T05:23:27.990Z,13.80
2023-03-26T05:25:30.978Z,13.78
2023-03-26T05:27:34.458Z,13.78
2023-03-26T05:29:37.553Z,13.76
2023-03-26T05:31:41.947Z,13.74
2023-03-26T05:33:45.343Z,13.72
2023-03-26T05:35:49.371Z,13.75
2023-03-26T05:37:52.555Z,13.72
2023-03-26T05:39:55.839Z,13.69
2023-03-26T05:41:58.705Z,13.67
2023-03-26T05:44:01.588Z,13.69
2023-03-26T05:46:04.817Z,13.68
2023-03-26T05:48:09.010Z,13.67
2023-03-26T05:50:12.443Z,13.65
2023-03-26T05:52:18.901Z,13.65
2023-03-26T05:54:21.697Z,13.66
2023-03-26T05:56:24.541Z,13.67
2023-03-26T05:58:28.641Z,13.66
2023-03-26T06:00:33.504Z,13.67
2023-03-26T06:02:37.037Z,13.69
2023-03-26T06:04:42.582Z,13.68
2023-03-26T06:06:45.801Z,13.67
2023-03-26T06:09:01.608Z,13.66
2023-03-26T06:11:07.937Z,13.68
2023-03-26T06:13:11.843Z,13.68
2023-03-26T06:15:14.652Z,13.64
2023-03-26T06:17:17.871Z,13.64
2023-03-26T06:19:20.628Z,13.66
2023-03-26T06:21:24.999Z,13.68
2023-03-26T06:23:29.352Z,13.67
2023-03-26T06:25:32.131Z,13.66
2023-03-26T06:27:34.900Z,13.64
2023-03-26T06:29:37.655Z,13.60
2023-03-26T06:31:41.536Z,13.58
2023-03-26T06:33:44.789Z,13.59
2023-03-26T06:35:47.601Z,13.63
2023-03-26T06:37:51.733Z,13.64
2023-03-26T06:39:54.512Z,13.64
2023-03-26T06:41:57.263Z,13.61
2023-03-26T06:44:00.249Z,13.63
2023-03-26T06:46:03.519Z,13.64
2023-03-26T06:48:06.822Z,13.63
2023-03-26T06:50:11.486Z,13.63
2023-03-26T06:52:14.330Z,13.66
2023-03-26T06:54:18.769Z,13.67
2023-03-26T06:56:21.594Z,13.68
2023-03-26T06:58:24.538Z,13.67
2023-03-26T07:00:27.263Z,13.68
2023-03-26T07:02:30.100Z,13.68
2023-03-26T07:04:32.918Z,13.68
2023-03-26T07:06:35.778Z,13.70
2023-03-26T07:08:38.600Z,13.73
2023-03-26T07:10:42.926Z,13.72
2023-03-26T07:12:45.962Z,13.75
2023-03-26T07:14:48.699Z,13.76
2023-03-26T07:16:51.618Z,13.77
2023-03-26T07:18:55.235Z,13.78
2023-03-26T07:20:58.509Z,13.77
2023-03-26T07:23:01.815Z,13.72
2023-03-26T07:25:05.972Z,13.72
2023-03-26T07:27:18.422Z,13.71
2023-03-26T07:29:33.551Z,13.74
2023-03-26T07:31:42.609Z,13.78
2023-03-26T07:33:53.658Z,13.78
2023-03-26T07:36:04.651Z,13.80
2023-03-26T07:38:24.917Z,13.77
2023-03-26T07:40:51.228Z,13.79
2023-03-26T07:43:04.501Z,13.79
2023-03-26T07:45:22.701Z,13.80
2023-03-26T07:47:29.693Z,13.79
2023-03-26T07:49:34.079Z,13.77
2023-03-26T07:51:37.288Z,13.74
2023-03-26T07:53:40.435Z,13.78
2023-03-26T07:55:51.386Z,13.78
2023-03-26T07:58:06.168Z,13.77
2023-03-26T08:00:15.177Z,13.76
2023-03-26T08:02:36.943Z,13.76
2023-03-26T08:05:11.068Z,13.77
2023-03-26T08:07:47.700Z,13.74
2023-03-26T08:10:17.113Z,13.73
2023-03-26T08:12:53.016Z,13.72
2023-03-26T08:15:29.102Z,13.74
2023-03-26T08:17:55.364Z,13.78
2023-03-26T08:20:26.137Z,13.82
2023-03-26T08:22:55.172Z,13.84
2023-03-26T08:25:27.669Z,13.85
2023-03-26T08:28:01.919Z,13.86
2023-03-26T08:30:28.170Z,13.86
2023-03-26T08:32:56.115Z,13.91
2023-03-26T08:35:19.068Z,13.90
2023-03-26T08:37:23.663Z,13.90
2023-03-26T08:39:46.422Z,13.94
2023-03-26T08:42:42.074Z,13.97
2023-03-26T08:45:24.023Z,13.98
2023-03-26T08:48:20.093Z,14.03
2023-03-26T08:51:01.474Z,14.06
2023-03-26T08:53:39.923Z,14.07
2023-03-26T08:55:49.944Z,14.07
2023-03-26T08:58:24.691Z,14.07
2023-03-26T09:00:53.741Z,14.11
2023-03-26T09:03:18.171Z,14.08
2023-03-26T09:06:01.240Z,14.05
2023-03-26T09:08:57.836Z,14.02
2023-03-26T09:11:20.674Z,13.99
2023-03-26T09:14:06.239Z,14.04
2023-03-26T09:16:33.419Z,13.96
2023-03-26T09:18:59.648Z,13.93
2023-03-26T09:21:44.208Z,13.94
2023-03-26T09:24:19.329Z,13.94
2023-03-26T09:26:38.428Z,13.93
2023-03-26T09:29:22.823Z,13.93
2023-03-26T09:31:59.735Z,13.94
2023-03-26T09:34:23.395Z,13.88
2023-03-26T09:36:57.631Z,13.87
2023-03-26T09:39:09.996Z,13.86
2023-03-26T09:41:17.282Z,13.86
2023-03-26T09:43:54.457Z,13.85
2023-03-26T09:46:11.732Z,13.89
2023-03-26T09:48:37.555Z,13.84
2023-03-26T09:50:58.506Z,13.79
2023-03-26T09:53:16.813Z,13.78
2023-03-26T09:55:45.234Z,13.76
2023-03-26T09:58:02.820Z,13.74
2023-03-26T10:00:22.170Z,13.72
2023-03-26T10:02:46.429Z,13.69
2023-03-26T10:05:14.195Z,13.68
2023-03-26T10:07:38.783Z,13.67
2023-03-26T10:09:52.643Z,13.65
2023-03-26T10:12:10.037Z,13.65
2023-03-26T10:14:23.845Z,13.69
2023-03-26T10:16:38.390Z,13.70
2023-03-26T10:18:53.163Z,13.71
2023-03-26T10:21:02.754Z,13.72
2023-03-26T10:23:33.689Z,13.73
2023-03-26T10:25:59.244Z,13.78
2023-03-26T10:28:15.697Z,13.78
2023-03-26T10:30:43.475Z,13.79
2023-03-26T10:32:59.024Z,13.78
2023-03-26T10:35:12.548Z,13.79
2023-03-26T10:37:26.108Z,13.82
2023-03-26T10:39:45.545Z,13.87
2023-03-26T10:42:00.389Z,13.87
2023-03-26T10:44:25.790Z,13.85
2023-03-26T10:46:52.189Z,13.92
2023-03-26T10:49:41.599Z,13.99
2023-03-26T10:51:51.203Z,14.09
2023-03-26T10:53:58.495Z,14.11
2023-03-26T10:56:10.728Z,14.14
2023-03-26T10:58:19.313Z,14.10
2023-03-26T11:00:26.224Z,14.06
2023-03-26T11:02:31.012Z,14.04
2023-03-26T11:04:48.393Z,14.02
2023-03-26T11:06:59.716Z,14.09
2023-03-26T11:09:12.206Z,14.13
2023-03-26T11:11:22.552Z,14.14
2023-03-26T11:13:40.000Z,14.15
2023-03-26T11:15:49.995Z,14.13
2023-03-26T11:18:04.948Z,14.10
2023-03-26T11:20:14.374Z,14.04
2023-03-26T11:22:28.704Z,14.01
2023-03-26T11:24:57.398Z,14.01
2023-03-26T11:27:15.333Z,13.86
2023-03-26T11:29:33.760Z,13.69
2023-03-26T11:31:50.342Z,13.60
2023-03-26T11:33:58.026Z,13.49
2023-03-26T11:36:07.056Z,13.38
2023-03-26T11:38:17.163Z,13.32
2023-03-26T11:40:24.798Z,13.24
2023-03-26T11:42:29.766Z,13.19
2023-03-26T11:44:38.069Z,13.18
2023-03-26T11:46:45.275Z,13.17
2023-03-26T11:48:51.816Z,13.17
2023-03-26T11:51:01.484Z,13.17
2023-03-26T11:53:13.659Z,13.21
2023-03-26T11:55:16.845Z,13.20
2023-03-26T11:57:23.596Z,13.04
2023-03-26T11:59:30.713Z,12.94
2023-03-26T12:01:44.110Z,12.88
2023-03-26T12:03:58.511Z,12.93
2023-03-26T12:06:02.794Z,12.97
2023-03-26T12:08:21.069Z,12.98
2023-03-26T12:10:37.605Z,13.04
2023-03-26T12:12:43.107Z,13.09
2023-03-26T12:14:46.394Z,13.19
2023-03-26T12:17:04.869Z,13.20
2023-03-26T12:19:21.033Z,13.22
2023-03-26T12:21:24.618Z,13.24
2023-03-26T12:23:57.755Z,13.21
2023-03-26T12:26:13.479Z,13.32
2023-03-26T12:28:21.583Z,13.33
2023-03-26T12:30:27.547Z,13.38
2023-03-26T12:32:45.841Z,13.45
2023-03-26T12:34:50.656Z,13.50
2023-03-26T12:36:59.568Z,13.51
2023-03-26T12:40:07.066Z,13.53
2023-03-26T12:44:47.973Z,13.52
2023-03-26T12:44:55.668Z,13.51
2023-03-26T12:47:56.491Z,13.48
2023-03-26T12:49:18.778Z,13.51
2023-03-26T12:51:42.434Z,13.50
2023-03-26T12:54:04.459Z,13.35
2023-03-26T12:56:22.258Z,13.26
2023-03-26T12:58:55.210Z,13.16
2023-03-26T13:01:06.554Z,13.04
2023-03-26T13:03:24.397Z,12.90
2023-03-26T13:05:41.573Z,12.69
2023-03-26T13:08:01.687Z,12.35
2023-03-26T13:10:43.284Z,11.97
2023-03-26T13:13:02.558Z,11.77
2023-03-26T13:15:18.930Z,11.79
2023-03-26T13:17:27.447Z,11.86
2023-03-26T13:19:44.144Z,11.91
2023-03-26T13:22:01.862Z,11.98
2023-03-26T13:24:18.380Z,12.05
2023-03-26T13:26:45.003Z,12.18
2023-03-26T13:29:04.307Z,12.27
2023-03-26T13:31:18.000Z,12.29
2023-03-26T13:33:42.386Z,12.30
2023-03-26T13:36:00.686Z,12.39
2023-03-26T13:38:16.891Z,12.49
2023-03-26T13:40:27.442Z,12.61
2023-03-26T13:42:44.765Z,12.71
2023-03-26T13:45:04.661Z,12.78
2023-03-26T13:47:14.673Z,12.83
2023-03-26T13:49:30.746Z,12.89
2023-03-26T13:51:41.560Z,12.90
2023-03-26T13:53:49.085Z,12.94
2023-03-26T13:55:57.004Z,12.95
2023-03-26T13:58:05.719Z,13.06
2023-03-26T14:00:17.391Z,13.14
2023-03-26T14:02:32.645Z,13.17
2023-03-26T14:04:46.280Z,13.19
2023-03-26T14:07:00.191Z,13.23
2023-03-26T14:09:11.507Z,13.13
2023-03-26T14:11:21.562Z,13.12
2023-03-26T14:13:31.395Z,13.16
2023-03-26T14:15:42.372Z,13.20
2023-03-26T14:17:51.408Z,13.21
2023-03-26T14:20:14.801Z,13.25
2023-03-26T14:22:27.193Z,13.30
2023-03-26T14:24:52.123Z,13.37
2023-03-26T14:27:30.573Z,13.42
2023-03-26T14:29:56.746Z,13.44
2023-03-26T14:32:24.539Z,13.45
2023-03-26T14:34:43.160Z,13.46
2023-03-26T14:37:11.308Z,13.46
2023-03-26T14:39:55.562Z,13.46
2023-03-26T14:42:03.083Z,13.44
2023-03-26T14:44:47.817Z,13.49
2023-03-26T14:47:04.525Z,13.55
2023-03-26T14:49:34.952Z,13.56
2023-03-26T14:52:04.317Z,13.59
2023-03-26T14:54:12.093Z,13.62
2023-03-26T14:56:53.043Z,13.65
2023-03-26T14:59:33.320Z,13.72
2023-03-26T15:02:12.768Z,13.82
2023-03-26T15:04:44.663Z,13.92
2023-03-26T15:07:22.239Z,13.98
2023-03-26T15:10:05.385Z,14.00
2023-03-26T15:12:19.713Z,14.01
2023-03-26T15:14:54.718Z,14.03
2023-03-26T15:17:37.599Z,14.07
2023-03-26T15:20:33.488Z,13.96
2023-03-26T15:23:09.178Z,13.88
2023-03-26T15:25:56.535Z,13.86
2023-03-26T15:28:26.443Z,13.93
2023-03-26T15:31:11.264Z,14.07
2023-03-26T15:33:47.162Z,14.17
2023-03-26T15:36:13.844Z,14.20
2023-03-26T15:39:04.443Z,14.20
2023-03-26T15:41:17.602Z,14.16
2023-03-26T15:43:21.438Z,14.12
2023-03-26T15:45:36.523Z,14.13
2023-03-26T15:47:50.899Z,14.16
2023-03-26T15:50:00.610Z,14.23
2023-03-26T15:52:17.189Z,14.26
2023-03-26T15:54:28.761Z,14.24
2023-03-26T15:56:49.046Z,14.23
2023-03-26T15:59:01.610Z,14.18
2023-03-26T16:01:19.234Z,14.07
2023-03-26T16:03:31.899Z,14.00
2023-03-26T16:05:53.563Z,13.98
2023-03-26T16:08:06.568Z,13.91
2023-03-26T16:10:28.277Z,13.86
2023-03-26T16:12:35.782Z,13.85
2023-03-26T16:14:46.777Z,13.79
2023-03-26T16:16:54.147Z,13.80
2023-03-26T16:18:59.460Z,13.81
2023-03-26T16:21:37.395Z,13.81
2023-03-26T16:23:56.460Z,13.83
2023-03-26T16:26:12.757Z,13.82
2023-03-26T16:28:36.919Z,13.83
2023-03-26T16:30:42.109Z,13.85
2023-03-26T16:32:49.008Z,13.86
2023-03-26T16:34:56.046Z,13.85
2023-03-26T16:37:00.391Z,13.87
2023-03-26T16:39:24.002Z,13.88
2023-03-26T16:41:29.902Z,13.90
2023-03-26T16:43:47.983Z,13.92
2023-03-26T16:45:56.288Z,13.97
2023-03-26T16:48:07.980Z,13.96
2023-03-26T16:50:21.348Z,14.01
2023-03-26T16:52:42.780Z,14.03
2023-03-26T16:57:00.998Z,14.09
2023-03-26T16:59:10.090Z,14.06
2023-03-26T17:01:22.616Z,14.03
2023-03-26T17:03:44.939Z,14.02
2023-03-26T17:06:11.867Z,13.91
2023-03-26T17:08:35.419Z,13.84
2023-03-26T17:10:48.271Z,13.81
2023-03-26T17:12:58.024Z,13.79
2023-03-26T17:15:11.925Z,13.72
2023-03-26T17:17:29.457Z,13.62
2023-03-26T17:19:39.423Z,13.56
2023-03-26T17:21:51.616Z,13.54
2023-03-26T17:24:15.220Z,13.52
2023-03-26T17:26:25.393Z,13.50
2023-03-26T17:28:50.380Z,13.53
2023-03-26T17:31:03.308Z,13.55
2023-03-26T17:33:16.294Z,13.56
2023-03-26T17:35:35.533Z,13.56
2023-03-26T17:37:45.746Z,13.57
2023-03-26T17:40:36.939Z,13.56
2023-03-26T17:43:01.749Z,13.56
2023-03-26T17:45:10.168Z,13.55
2023-03-26T17:47:21.924Z,13.53
2023-03-26T17:49:31.100Z,13.53
2023-03-26T17:51:40.849Z,13.53
2023-03-26T17:53:43.970Z,13.54
2023-03-26T17:55:48.207Z,13.54
2023-03-26T17:57:57.296Z,13.53
2023-03-26T18:00:01.727Z,13.54
2023-03-26T18:02:06.926Z,13.55
2023-03-26T18:04:20.292Z,13.56
2023-03-26T18:06:42.357Z,13.55
2023-03-26T18:09:01.031Z,13.53
2023-03-26T18:11:21.465Z,13.50
2023-03-26T18:13:54.557Z,13.50
2023-03-26T18:16:11.219Z,13.48
2023-03-26T18:18:19.815Z,13.49
2023-03-26T18:20:25.575Z,13.40
2023-03-26T18:22:30.194Z,13.26
2023-03-26T18:24:37.645Z,13.11
2023-03-26T18:26:42.707Z,12.99
2023-03-26T18:28:51.725Z,12.99
2023-03-26T18:30:54.656Z,12.98
2023-03-26T18:33:03.072Z,12.88
2023-03-26T18:35:18.829Z,12.78
2023-03-26T18:37:25.005Z,12.75
2023-03-26T18:39:28.192Z,12.68
2023-03-26T18:41:37.277Z,12.62
2023-03-26T18:43:44.356Z,12.55
2023-03-26T18:45:52.392Z,12.52
2023-03-26T18:47:58.412Z,12.56
2023-03-26T18:50:01.684Z,12.60
2023-03-26T18:52:04.996Z,12.65
2023-03-26T18:54:10.378Z,12.65
2023-03-26T18:56:21.583Z,12.67
2023-03-26T18:58:27.481Z,12.66
2023-03-26T19:00:30.935Z,12.69
2023-03-26T19:02:35.741Z,12.71
2023-03-26T19:04:39.347Z,12.69
2023-03-26T19:06:43.677Z,12.69
2023-03-26T19:08:48.051Z,12.71
2023-03-26T19:10:51.790Z,12.71
2023-03-26T19:12:58.454Z,12.67
2023-03-26T19:15:05.995Z,12.67
2023-03-26T19:17:09.003Z,12.66
2023-03-26T19:19:20.210Z,12.66
2023-03-26T19:21:23.342Z,12.65
2023-03-26T19:23:29.069Z,12.66
2023-03-26T19:25:38.926Z,12.69
2023-03-26T19:27:41.675Z,12.71
2023-03-26T19:29:44.865Z,12.73
2023-03-26T19:31:52.219Z,12.76
2023-03-26T19:33:58.125Z,12.78
2023-03-26T19:36:05.926Z,12.76
2023-03-26T19:38:23.532Z,12.74
2023-03-26T19:40:29.966Z,12.76
2023-03-26T19:42:43.734Z,12.77
2023-03-26T19:44:47.488Z,12.75
2023-03-26T19:46:53.724Z,12.73
2023-03-26T19:49:28.547Z,12.70
2023-03-26T19:51:35.798Z,12.72
2023-03-26T19:53:44.756Z,12.72
2023-03-26T19:55:55.477Z,12.70
2023-03-26T19:57:58.357Z,12.74
2023-03-26T20:00:01.276Z,12.74
2023-03-26T20:02:04.305Z,12.75
2023-03-26T20:04:11.331Z,12.76
2023-03-26T20:06:16.564Z,12.77
2023-03-26T20:08:27.206Z,12.81
2023-03-26T20:10:30.169Z,12.83
2023-03-26T20:12:32.985Z,12.83
2023-03-26T20:14:36.149Z,12.80
2023-03-26T20:16:39.746Z,12.81
2023-03-26T20:18:43.405Z,12.79
2023-03-26T20:20:46.150Z,12.80
2023-03-26T20:22:49.392Z,12.82
2023-03-26T20:24:54.593Z,12.82
2023-03-26T20:26:57.321Z,12.81
2023-03-26T20:29:00.040Z,12.79
2023-03-26T20:31:02.970Z,12.79
2023-03-26T20:33:12.789Z,12.79
2023-03-26T20:35:19.159Z,12.81
2023-03-26T20:37:38.481Z,12.84
2023-03-26T20:39:43.697Z,12.85
2023-03-26T20:41:50.042Z,12.82
2023-03-26T20:43:53.427Z,12.80
2023-03-26T20:45:57.963Z,12.79
2023-03-26T20:48:02.643Z,12.80
2023-03-26T20:50:06.405Z,12.80
2023-03-26T20:52:10.707Z,12.79
2023-03-26T20:54:17.751Z,12.80
2023-03-26T20:56:21.757Z,12.83
2023-03-26T20:58:31.189Z,12.83
2023-03-26T21:00:37.067Z,12.78
2023-03-26T21:02:42.046Z,12.75
2023-03-26T21:04:47.277Z,12.70
2023-03-26T21:06:50.734Z,12.69
2023-03-26T21:08:54.563Z,12.70
2023-03-26T21:11:01.966Z,12.71
2023-03-26T21:13:09.960Z,12.74
2023-03-26T21:15:23.137Z,12.74
2023-03-26T21:17:27.231Z,12.73
2023-03-26T21:19:30.764Z,12.73
2023-03-26T21:21:47.496Z,12.75
2023-03-26T21:23:59.104Z,12.76
2023-03-26T21:26:07.843Z,12.77
2023-03-26T21:28:28.900Z,12.77
2023-03-26T21:30:40.881Z,12.77
2023-03-26T21:32:45.603Z,12.78
2023-03-26T21:34:58.463Z,12.76
2023-03-26T21:37:02.708Z,12.77
2023-03-26T21:39:06.472Z,12.75
2023-03-26T21:41:20.600Z,12.72
2023-03-26T21:43:23.972Z,12.68
2023-03-26T21:45:27.797Z,12.67
2023-03-26T21:47:32.547Z,12.65
